Hussar, Canada
Current Conditions -  °F | °C
As of 4:00 PM on Wednesday 22 Oct 2014 (Local Time) from CYYC Reporting Station
Broken Clouds Broken Clouds  
Wind Chill: 59°   Ceiling: 18000
Heat Index: 59°   Visibility: 30mi
Dew Point: 32°   Wind: 2mph
Humidity: 36%   Direction: NA
Pressure: 29.65"   Gusts: NA
Location:  51.03°N, 112.68°W
Report Text: CYYC 222200Z VRB02KT 30SM FEW065 BKN180 BKN250 15/M00 A2965 RMK CU1AC5CI2 CU TR SLP058 DENSITY ALT 4700FT
Loading
Personal Weather Stations






























Interactive Weather Map
Tropical Storm Tracking
New forecast layout! Learn more

10-Day Weather Forecast

Advertisements
Track Severe Weather on mobile